sensor_id;sensor_type;location;lat;lon;timestamp;P1;durP1;ratioP1;P2;durP2;ratioP2
15655;SDS011;7928;43.614;1.456;2023-03-14T00:01:12;9.47;;;1.83;;
15655;SDS011;7928;43.614;1.456;2023-03-14T00:03:41;6.47;;;1.30;;
15655;SDS011;7928;43.614;1.456;2023-03-14T00:06:08;7.97;;;1.47;;
15655;SDS011;7928;43.614;1.456;2023-03-14T00:08:36;8.90;;;1.80;;
15655;SDS011;7928;43.614;1.456;2023-03-14T00:11:04;11.13;;;2.00;;
15655;SDS011;7928;43.614;1.456;2023-03-14T00:13:32;7.83;;;1.67;;
15655;SDS011;7928;43.614;1.456;2023-03-14T00:16:03;7.40;;;1.80;;
15655;SDS011;7928;43.614;1.456;2023-03-14T00:18:32;7.63;;;1.67;;
15655;SDS011;7928;43.614;1.456;2023-03-14T00:20:59;8.47;;;1.23;;
15655;SDS011;7928;43.614;1.456;2023-03-14T00:23:27;6.57;;;1.40;;
15655;SDS011;7928;43.614;1.456;2023-03-14T00:25:57;7.67;;;1.53;;
15655;SDS011;7928;43.614;1.456;2023-03-14T00:28:25;8.47;;;1.30;;
15655;SDS011;7928;43.614;1.456;2023-03-14T00:30:52;9.73;;;1.87;;
15655;SDS011;7928;43.614;1.456;2023-03-14T00:33:19;4.13;;;1.20;;
15655;SDS011;7928;43.614;1.456;2023-03-14T00:35:53;7.63;;;1.27;;
15655;SDS011;7928;43.614;1.456;2023-03-14T00:38:21;6.20;;;1.10;;
15655;SDS011;7928;43.614;1.456;2023-03-14T00:40:49;7.83;;;1.93;;
15655;SDS011;7928;43.614;1.456;2023-03-14T00:43:16;7.90;;;2.30;;
15655;SDS011;7928;43.614;1.456;2023-03-14T00:45:43;4.53;;;1.10;;
15655;SDS011;7928;43.614;1.456;2023-03-14T00:48:10;9.10;;;1.60;;
15655;SDS011;7928;43.614;1.456;2023-03-14T00:50:38;6.60;;;1.20;;
15655;SDS011;7928;43.614;1.456;2023-03-14T00:53:06;10.33;;;1.83;;
15655;SDS011;7928;43.614;1.456;2023-03-14T00:55:35;4.93;;;1.30;;
15655;SDS011;7928;43.614;1.456;2023-03-14T00:58:03;4.60;;;1.40;;
15655;SDS011;7928;43.614;1.456;2023-03-14T01:00:30;8.40;;;1.87;;
15655;SDS011;7928;43.614;1.456;2023-03-14T01:02:57;12.37;;;1.73;;
15655;SDS011;7928;43.614;1.456;2023-03-14T01:05:24;7.07;;;1.77;;
15655;SDS011;7928;43.614;1.456;2023-03-14T01:07:51;5.50;;;1.17;;
15655;SDS011;7928;43.614;1.456;2023-03-14T01:10:20;5.20;;;0.93;;
15655;SDS011;7928;43.614;1.456;2023-03-14T01:12:47;6.23;;;1.90;;
15655;SDS011;7928;43.614;1.456;2023-03-14T01:15:14;8.70;;;1.30;;
15655;SDS011;7928;43.614;1.456;2023-03-14T01:17:41;10.40;;;1.77;;
15655;SDS011;7928;43.614;1.456;2023-03-14T01:20:10;8.73;;;1.67;;
15655;SDS011;7928;43.614;1.456;2023-03-14T01:22:38;12.03;;;1.30;;
15655;SDS011;7928;43.614;1.456;2023-03-14T01:25:07;7.77;;;1.40;;
15655;SDS011;7928;43.614;1.456;2023-03-14T01:27:36;7.60;;;1.40;;
15655;SDS011;7928;43.614;1.456;2023-03-14T01:30:04;5.57;;;1.63;;
15655;SDS011;7928;43.614;1.456;2023-03-14T01:32:33;7.37;;;1.20;;
15655;SDS011;7928;43.614;1.456;2023-03-14T01:35:00;8.30;;;1.23;;
15655;SDS011;7928;43.614;1.456;2023-03-14T01:37:27;7.33;;;1.10;;
15655;SDS011;7928;43.614;1.456;2023-03-14T01:39:54;8.47;;;1.67;;
15655;SDS011;7928;43.614;1.456;2023-03-14T01:42:21;6.53;;;1.90;;
15655;SDS011;7928;43.614;1.456;2023-03-14T01:44:51;8.67;;;1.50;;
15655;SDS011;7928;43.614;1.456;2023-03-14T01:47:19;8.20;;;1.83;;
15655;SDS011;7928;43.614;1.456;2023-03-14T01:49:47;6.97;;;1.80;;
15655;SDS011;7928;43.614;1.456;2023-03-14T01:52:16;10.03;;;2.33;;
15655;SDS011;7928;43.614;1.456;2023-03-14T01:54:47;10.97;;;2.40;;
15655;SDS011;7928;43.614;1.456;2023-03-14T01:57:17;10.80;;;2.30;;
15655;SDS011;7928;43.614;1.456;2023-03-14T01:59:48;9.40;;;2.13;;
15655;SDS011;7928;43.614;1.456;2023-03-14T02:02:20;13.83;;;2.93;;
15655;SDS011;7928;43.614;1.456;2023-03-14T02:04:49;12.67;;;2.60;;
15655;SDS011;7928;43.614;1.456;2023-03-14T02:07:18;17.40;;;3.13;;
15655;SDS011;7928;43.614;1.456;2023-03-14T02:09:48;15.03;;;3.13;;
15655;SDS011;7928;43.614;1.456;2023-03-14T02:12:16;11.40;;;2.53;;
15655;SDS011;7928;43.614;1.456;2023-03-14T02:14:46;12.83;;;2.57;;
15655;SDS011;7928;43.614;1.456;2023-03-14T02:17:15;15.67;;;3.07;;
15655;SDS011;7928;43.614;1.456;2023-03-14T02:19:48;12.23;;;2.50;;
15655;SDS011;7928;43.614;1.456;2023-03-14T02:22:26;12.10;;;2.73;;
15655;SDS011;7928;43.614;1.456;2023-03-14T02:24:55;16.07;;;2.50;;
15655;SDS011;7928;43.614;1.456;2023-03-14T02:27:30;13.30;;;2.97;;
15655;SDS011;7928;43.614;1.456;2023-03-14T02:29:58;13.27;;;2.90;;
15655;SDS011;7928;43.614;1.456;2023-03-14T02:32:29;13.07;;;2.67;;
15655;SDS011;7928;43.614;1.456;2023-03-14T02:34:59;12.23;;;2.87;;
15655;SDS011;7928;43.614;1.456;2023-03-14T02:37:31;16.83;;;2.73;;
15655;SDS011;7928;43.614;1.456;2023-03-14T02:40:01;17.00;;;2.93;;
15655;SDS011;7928;43.614;1.456;2023-03-14T02:42:31;12.93;;;2.80;;
15655;SDS011;7928;43.614;1.456;2023-03-14T02:44:59;13.30;;;2.90;;
15655;SDS011;7928;43.614;1.456;2023-03-14T02:47:49;12.67;;;2.90;;
15655;SDS011;7928;43.614;1.456;2023-03-14T02:50:20;10.80;;;2.77;;
15655;SDS011;7928;43.614;1.456;2023-03-14T02:52:50;12.60;;;2.60;;
15655;SDS011;7928;43.614;1.456;2023-03-14T02:55:19;15.40;;;2.83;;
15655;SDS011;7928;43.614;1.456;2023-03-14T02:57:48;11.33;;;2.67;;
15655;SDS011;7928;43.614;1.456;2023-03-14T03:00:16;12.33;;;2.43;;
15655;SDS011;7928;43.614;1.456;2023-03-14T03:02:43;11.03;;;3.13;;
15655;SDS011;7928;43.614;1.456;2023-03-14T03:05:11;10.80;;;2.10;;
15655;SDS011;7928;43.614;1.456;2023-03-14T03:07:38;9.73;;;2.27;;
15655;SDS011;7928;43.614;1.456;2023-03-14T03:10:05;11.90;;;2.30;;
15655;SDS011;7928;43.614;1.456;2023-03-14T03:12:33;13.33;;;3.17;;
15655;SDS011;7928;43.614;1.456;2023-03-14T03:15:01;10.13;;;2.10;;
15655;SDS011;7928;43.614;1.456;2023-03-14T03:17:29;10.37;;;2.00;;
15655;SDS011;7928;43.614;1.456;2023-03-14T03:19:56;11.27;;;2.30;;
15655;SDS011;7928;43.614;1.456;2023-03-14T03:22:23;13.20;;;2.70;;
15655;SDS011;7928;43.614;1.456;2023-03-14T03:24:50;12.87;;;2.70;;
15655;SDS011;7928;43.614;1.456;2023-03-14T03:27:17;10.73;;;2.57;;
15655;SDS011;7928;43.614;1.456;2023-03-14T03:29:44;10.83;;;2.17;;
15655;SDS011;7928;43.614;1.456;2023-03-14T03:32:12;12.53;;;2.67;;
15655;SDS011;7928;43.614;1.456;2023-03-14T03:34:39;11.33;;;2.53;;
15655;SDS011;7928;43.614;1.456;2023-03-14T03:37:06;15.17;;;2.97;;
15655;SDS011;7928;43.614;1.456;2023-03-14T03:39:33;11.73;;;2.90;;
15655;SDS011;7928;43.614;1.456;2023-03-14T03:42:00;13.00;;;2.70;;
15655;SDS011;7928;43.614;1.456;2023-03-14T03:44:27;14.83;;;2.90;;
15655;SDS011;7928;43.614;1.456;2023-03-14T03:46:54;9.53;;;2.40;;
15655;SDS011;7928;43.614;1.456;2023-03-14T03:49:22;9.20;;;2.43;;
15655;SDS011;7928;43.614;1.456;2023-03-14T03:51:49;9.13;;;2.30;;
15655;SDS011;7928;43.614;1.456;2023-03-14T03:54:17;15.40;;;2.80;;
15655;SDS011;7928;43.614;1.456;2023-03-14T03:56:44;9.13;;;2.07;;
15655;SDS011;7928;43.614;1.456;2023-03-14T03:59:11;8.93;;;2.10;;
15655;SDS011;7928;43.614;1.456;2023-03-14T04:01:37;11.73;;;2.03;;
15655;SDS011;7928;43.614;1.456;2023-03-14T04:04:05;9.00;;;1.90;;
15655;SDS011;7928;43.614;1.456;2023-03-14T04:06:33;9.97;;;2.70;;
15655;SDS011;7928;43.614;1.456;2023-03-14T04:09:00;12.50;;;2.30;;
15655;SDS011;7928;43.614;1.456;2023-03-14T04:11:27;7.87;;;1.83;;
15655;SDS011;7928;43.614;1.456;2023-03-14T04:13:54;13.97;;;2.57;;
15655;SDS011;7928;43.614;1.456;2023-03-14T04:16:22;11.83;;;3.23;;
15655;SDS011;7928;43.614;1.456;2023-03-14T04:18:51;11.20;;;2.20;;
15655;SDS011;7928;43.614;1.456;2023-03-14T04:21:18;11.13;;;1.90;;
15655;SDS011;7928;43.614;1.456;2023-03-14T04:23:46;15.70;;;2.63;;
15655;SDS011;7928;43.614;1.456;2023-03-14T04:26:13;10.10;;;2.40;;
15655;SDS011;7928;43.614;1.456;2023-03-14T04:28:41;11.70;;;2.80;;
15655;SDS011;7928;43.614;1.456;2023-03-14T04:31:08;12.53;;;3.60;;
15655;SDS011;7928;43.614;1.456;2023-03-14T04:33:35;8.87;;;2.00;;
15655;SDS011;7928;43.614;1.456;2023-03-14T04:36:03;12.87;;;2.43;;
15655;SDS011;7928;43.614;1.456;2023-03-14T04:38:31;11.03;;;2.63;;
15655;SDS011;7928;43.614;1.456;2023-03-14T04:41:00;12.77;;;2.53;;
15655;SDS011;7928;43.614;1.456;2023-03-14T04:43:27;11.77;;;2.90;;
15655;SDS011;7928;43.614;1.456;2023-03-14T04:45:54;11.83;;;2.27;;
15655;SDS011;7928;43.614;1.456;2023-03-14T04:48:22;11.77;;;2.40;;
15655;SDS011;7928;43.614;1.456;2023-03-14T04:50:49;15.43;;;2.77;;
15655;SDS011;7928;43.614;1.456;2023-03-14T04:53:17;11.90;;;2.47;;
15655;SDS011;7928;43.614;1.456;2023-03-14T04:55:47;10.57;;;2.70;;
15655;SDS011;7928;43.614;1.456;2023-03-14T04:58:16;12.80;;;2.27;;
15655;SDS011;7928;43.614;1.456;2023-03-14T05:00:43;14.57;;;2.50;;
15655;SDS011;7928;43.614;1.456;2023-03-14T05:03:10;13.90;;;2.57;;
15655;SDS011;7928;43.614;1.456;2023-03-14T05:05:37;10.80;;;2.73;;
15655;SDS011;7928;43.614;1.456;2023-03-14T05:08:04;11.73;;;2.67;;
15655;SDS011;7928;43.614;1.456;2023-03-14T05:10:31;13.27;;;3.30;;
15655;SDS011;7928;43.614;1.456;2023-03-14T05:12:59;16.17;;;2.93;;
15655;SDS011;7928;43.614;1.456;2023-03-14T05:15:27;13.93;;;3.10;;
15655;SDS011;7928;43.614;1.456;2023-03-14T05:17:54;16.73;;;3.07;;
15655;SDS011;7928;43.614;1.456;2023-03-14T05:20:21;15.83;;;3.30;;
15655;SDS011;7928;43.614;1.456;2023-03-14T05:22:48;17.23;;;2.90;;
15655;SDS011;7928;43.614;1.456;2023-03-14T05:25:15;17.33;;;3.77;;
15655;SDS011;7928;43.614;1.456;2023-03-14T05:27:42;13.90;;;3.10;;
15655;SDS011;7928;43.614;1.456;2023-03-14T05:30:10;19.73;;;3.73;;
15655;SDS011;7928;43.614;1.456;2023-03-14T05:32:38;23.07;;;3.83;;
15655;SDS011;7928;43.614;1.456;2023-03-14T05:35:06;17.30;;;3.67;;
15655;SDS011;7928;43.614;1.456;2023-03-14T05:37:33;22.73;;;4.13;;
15655;SDS011;7928;43.614;1.456;2023-03-14T05:40:00;18.73;;;3.80;;
15655;SDS011;7928;43.614;1.456;2023-03-14T05:42:28;19.67;;;4.13;;
15655;SDS011;7928;43.614;1.456;2023-03-14T05:44:55;16.03;;;3.40;;
15655;SDS011;7928;43.614;1.456;2023-03-14T05:47:22;16.47;;;3.90;;
15655;SDS011;7928;43.614;1.456;2023-03-14T05:49:50;19.67;;;3.93;;
15655;SDS011;7928;43.614;1.456;2023-03-14T05:52:17;20.33;;;5.23;;
15655;SDS011;7928;43.614;1.456;2023-03-14T05:54:44;18.23;;;5.50;;
15655;SDS011;7928;43.614;1.456;2023-03-14T05:57:11;19.97;;;8.77;;
15655;SDS011;7928;43.614;1.456;2023-03-14T05:59:38;23.40;;;8.63;;
15655;SDS011;7928;43.614;1.456;2023-03-14T06:02:05;22.00;;;4.53;;
15655;SDS011;7928;43.614;1.456;2023-03-14T06:04:32;20.13;;;4.60;;
15655;SDS011;7928;43.614;1.456;2023-03-14T06:07:01;20.87;;;4.23;;
15655;SDS011;7928;43.614;1.456;2023-03-14T06:09:28;18.87;;;3.90;;
15655;SDS011;7928;43.614;1.456;2023-03-14T06:11:55;14.97;;;3.67;;
15655;SDS011;7928;43.614;1.456;2023-03-14T06:14:22;14.87;;;4.13;;
15655;SDS011;7928;43.614;1.456;2023-03-14T06:16:49;17.97;;;4.37;;
15655;SDS011;7928;43.614;1.456;2023-03-14T06:19:18;17.17;;;3.43;;
15655;SDS011;7928;43.614;1.456;2023-03-14T06:21:45;13.27;;;3.27;;
15655;SDS011;7928;43.614;1.456;2023-03-14T06:24:14;21.53;;;4.70;;
15655;SDS011;7928;43.614;1.456;2023-03-14T06:26:41;13.47;;;3.53;;
15655;SDS011;7928;43.614;1.456;2023-03-14T06:29:08;15.57;;;4.10;;
15655;SDS011;7928;43.614;1.456;2023-03-14T06:31:35;16.17;;;3.87;;
15655;SDS011;7928;43.614;1.456;2023-03-14T06:34:02;18.33;;;5.00;;
15655;SDS011;7928;43.614;1.456;2023-03-14T06:36:29;19.00;;;3.63;;
15655;SDS011;7928;43.614;1.456;2023-03-14T06:38:56;16.13;;;3.53;;
15655;SDS011;7928;43.614;1.456;2023-03-14T06:41:24;16.00;;;3.67;;
15655;SDS011;7928;43.614;1.456;2023-03-14T06:43:52;17.00;;;3.47;;
15655;SDS011;7928;43.614;1.456;2023-03-14T06:46:19;18.83;;;3.90;;
15655;SDS011;7928;43.614;1.456;2023-03-14T06:48:46;16.43;;;3.57;;
15655;SDS011;7928;43.614;1.456;2023-03-14T06:51:13;22.47;;;4.80;;
15655;SDS011;7928;43.614;1.456;2023-03-14T06:53:40;25.10;;;4.00;;
15655;SDS011;7928;43.614;1.456;2023-03-14T06:56:07;21.30;;;4.13;;
15655;SDS011;7928;43.614;1.456;2023-03-14T06:58:36;21.47;;;4.87;;
15655;SDS011;7928;43.614;1.456;2023-03-14T07:01:03;19.60;;;5.27;;
15655;SDS011;7928;43.614;1.456;2023-03-14T07:03:32;21.67;;;4.87;;
15655;SDS011;7928;43.614;1.456;2023-03-14T07:05:59;25.03;;;5.10;;
15655;SDS011;7928;43.614;1.456;2023-03-14T07:08:26;26.60;;;5.30;;
15655;SDS011;7928;43.614;1.456;2023-03-14T07:10:53;21.77;;;4.10;;
15655;SDS011;7928;43.614;1.456;2023-03-14T07:13:22;19.33;;;3.93;;
15655;SDS011;7928;43.614;1.456;2023-03-14T07:15:51;15.43;;;3.37;;
15655;SDS011;7928;43.614;1.456;2023-03-14T07:18:18;20.40;;;4.67;;
15655;SDS011;7928;43.614;1.456;2023-03-14T07:20:45;27.10;;;4.70;;
15655;SDS011;7928;43.614;1.456;2023-03-14T07:23:12;27.63;;;5.47;;
15655;SDS011;7928;43.614;1.456;2023-03-14T07:25:39;27.60;;;5.43;;
15655;SDS011;7928;43.614;1.456;2023-03-14T07:28:06;23.77;;;5.00;;
15655;SDS011;7928;43.614;1.456;2023-03-14T07:30:33;29.27;;;6.17;;
15655;SDS011;7928;43.614;1.456;2023-03-14T07:33:02;41.70;;;7.80;;
15655;SDS011;7928;43.614;1.456;2023-03-14T07:35:29;31.60;;;6.30;;
15655;SDS011;7928;43.614;1.456;2023-03-14T07:37:57;27.37;;;5.90;;
15655;SDS011;7928;43.614;1.456;2023-03-14T07:40:24;31.60;;;6.40;;
15655;SDS011;7928;43.614;1.456;2023-03-14T07:42:51;33.53;;;5.67;;
15655;SDS011;7928;43.614;1.456;2023-03-14T07:45:20;25.93;;;5.97;;
15655;SDS011;7928;43.614;1.456;2023-03-14T07:47:47;29.30;;;6.23;;
15655;SDS011;7928;43.614;1.456;2023-03-14T07:50:16;32.67;;;7.83;;
15655;SDS011;7928;43.614;1.456;2023-03-14T07:52:44;28.47;;;6.50;;
15655;SDS011;7928;43.614;1.456;2023-03-14T07:55:11;32.50;;;6.57;;
15655;SDS011;7928;43.614;1.456;2023-03-14T07:57:38;33.37;;;6.47;;
15655;SDS011;7928;43.614;1.456;2023-03-14T08:00:06;31.87;;;6.03;;
15655;SDS011;7928;43.614;1.456;2023-03-14T08:02:35;33.10;;;6.17;;
15655;SDS011;7928;43.614;1.456;2023-03-14T08:05:02;33.40;;;6.30;;
15655;SDS011;7928;43.614;1.456;2023-03-14T08:07:30;33.80;;;6.13;;
15655;SDS011;7928;43.614;1.456;2023-03-14T08:09:57;32.90;;;6.60;;
15655;SDS011;7928;43.614;1.456;2023-03-14T08:12:24;23.00;;;5.07;;
15655;SDS011;7928;43.614;1.456;2023-03-14T08:14:51;28.33;;;5.87;;
15655;SDS011;7928;43.614;1.456;2023-03-14T08:17:18;31.30;;;6.73;;
15655;SDS011;7928;43.614;1.456;2023-03-14T08:19:45;34.90;;;6.60;;
15655;SDS011;7928;43.614;1.456;2023-03-14T08:22:12;33.63;;;6.47;;
15655;SDS011;7928;43.614;1.456;2023-03-14T08:24:41;29.23;;;6.77;;
15655;SDS011;7928;43.614;1.456;2023-03-14T08:27:08;29.53;;;6.33;;
15655;SDS011;7928;43.614;1.456;2023-03-14T08:29:36;32.07;;;6.00;;
15655;SDS011;7928;43.614;1.456;2023-03-14T08:32:03;33.00;;;6.53;;
15655;SDS011;7928;43.614;1.456;2023-03-14T08:34:32;25.20;;;5.83;;
15655;SDS011;7928;43.614;1.456;2023-03-14T08:36:59;24.80;;;5.50;;
15655;SDS011;7928;43.614;1.456;2023-03-14T08:39:26;24.53;;;6.03;;
15655;SDS011;7928;43.614;1.456;2023-03-14T08:41:55;30.67;;;6.53;;
15655;SDS011;7928;43.614;1.456;2023-03-14T08:44:21;30.77;;;5.43;;
15655;SDS011;7928;43.614;1.456;2023-03-14T08:46:48;23.60;;;6.23;;
15655;SDS011;7928;43.614;1.456;2023-03-14T08:49:15;23.63;;;5.60;;
15655;SDS011;7928;43.614;1.456;2023-03-14T08:51:42;25.77;;;5.27;;
15655;SDS011;7928;43.614;1.456;2023-03-14T08:54:09;27.53;;;6.60;;
15655;SDS011;7928;43.614;1.456;2023-03-14T08:56:37;24.90;;;6.17;;
15655;SDS011;7928;43.614;1.456;2023-03-14T08:59:05;18.57;;;4.53;;
15655;SDS011;7928;43.614;1.456;2023-03-14T09:01:33;27.30;;;6.43;;
15655;SDS011;7928;43.614;1.456;2023-03-14T09:04:00;33.10;;;6.67;;
15655;SDS011;7928;43.614;1.456;2023-03-14T09:06:27;22.57;;;5.60;;
15655;SDS011;7928;43.614;1.456;2023-03-14T09:08:54;21.47;;;4.87;;
15655;SDS011;7928;43.614;1.456;2023-03-14T09:11:21;27.67;;;5.87;;
15655;SDS011;7928;43.614;1.456;2023-03-14T09:13:48;29.20;;;5.40;;
15655;SDS011;7928;43.614;1.456;2023-03-14T09:16:16;32.07;;;6.63;;
15655;SDS011;7928;43.614;1.456;2023-03-14T09:18:43;11.83;;;2.63;;
15655;SDS011;7928;43.614;1.456;2023-03-14T09:21:10;9.17;;;2.37;;
15655;SDS011;7928;43.614;1.456;2023-03-14T09:23:37;13.00;;;2.83;;
15655;SDS011;7928;43.614;1.456;2023-03-14T09:26:05;14.77;;;2.90;;
15655;SDS011;7928;43.614;1.456;2023-03-14T09:28:32;13.47;;;3.07;;
15655;SDS011;7928;43.614;1.456;2023-03-14T09:31:04;9.97;;;2.40;;
15655;SDS011;7928;43.614;1.456;2023-03-14T09:33:34;11.47;;;2.20;;
15655;SDS011;7928;43.614;1.456;2023-03-14T09:36:01;14.43;;;2.10;;
15655;SDS011;7928;43.614;1.456;2023-03-14T09:38:29;10.63;;;2.10;;
15655;SDS011;7928;43.614;1.456;2023-03-14T09:40:57;14.23;;;2.20;;
15655;SDS011;7928;43.614;1.456;2023-03-14T09:43:26;11.50;;;2.80;;
15655;SDS011;7928;43.614;1.456;2023-03-14T09:45:57;10.77;;;2.00;;
15655;SDS011;7928;43.614;1.456;2023-03-14T09:48:28;13.63;;;2.57;;
15655;SDS011;7928;43.614;1.456;2023-03-14T09:50:59;13.10;;;3.40;;
15655;SDS011;7928;43.614;1.456;2023-03-14T09:53:33;15.43;;;3.17;;
15655;SDS011;7928;43.614;1.456;2023-03-14T09:56:04;20.73;;;4.43;;
15655;SDS011;7928;43.614;1.456;2023-03-14T09:58:35;19.70;;;4.40;;
15655;SDS011;7928;43.614;1.456;2023-03-14T10:01:03;22.17;;;3.67;;
15655;SDS011;7928;43.614;1.456;2023-03-14T10:03:31;24.13;;;4.87;;
15655;SDS011;7928;43.614;1.456;2023-03-14T10:06:01;21.07;;;4.57;;
15655;SDS011;7928;43.614;1.456;2023-03-14T10:08:35;18.53;;;4.33;;
15655;SDS011;7928;43.614;1.456;2023-03-14T10:11:05;15.93;;;4.03;;
15655;SDS011;7928;43.614;1.456;2023-03-14T10:13:32;13.30;;;3.77;;
15655;SDS011;7928;43.614;1.456;2023-03-14T10:16:00;18.03;;;3.47;;
15655;SDS011;7928;43.614;1.456;2023-03-14T10:18:29;13.70;;;3.80;;
15655;SDS011;7928;43.614;1.456;2023-03-14T10:21:04;13.70;;;3.23;;
15655;SDS011;7928;43.614;1.456;2023-03-14T10:23:43;14.17;;;3.20;;
15655;SDS011;7928;43.614;1.456;2023-03-14T10:26:13;14.30;;;3.20;;
15655;SDS011;7928;43.614;1.456;2023-03-14T10:28:43;13.73;;;3.07;;
15655;SDS011;7928;43.614;1.456;2023-03-14T10:31:11;17.53;;;3.50;;
15655;SDS011;7928;43.614;1.456;2023-03-14T10:33:38;15.47;;;3.47;;
15655;SDS011;7928;43.614;1.456;2023-03-14T10:36:17;15.20;;;4.03;;
15655;SDS011;7928;43.614;1.456;2023-03-14T10:38:46;12.80;;;3.17;;
15655;SDS011;7928;43.614;1.456;2023-03-14T10:41:17;10.97;;;2.57;;
15655;SDS011;7928;43.614;1.456;2023-03-14T10:43:46;8.63;;;1.30;;
15655;SDS011;7928;43.614;1.456;2023-03-14T10:46:18;5.13;;;1.20;;
15655;SDS011;7928;43.614;1.456;2023-03-14T10:48:46;6.30;;;1.50;;
15655;SDS011;7928;43.614;1.456;2023-03-14T10:51:19;10.83;;;2.37;;
15655;SDS011;7928;43.614;1.456;2023-03-14T10:53:55;9.73;;;2.07;;
15655;SDS011;7928;43.614;1.456;2023-03-14T10:56:24;9.87;;;2.33;;
15655;SDS011;7928;43.614;1.456;2023-03-14T10:58:53;11.53;;;2.90;;
15655;SDS011;7928;43.614;1.456;2023-03-14T11:01:31;11.47;;;2.20;;
15655;SDS011;7928;43.614;1.456;2023-03-14T11:04:08;6.23;;;1.30;;
15655;SDS011;7928;43.614;1.456;2023-03-14T11:06:47;9.13;;;1.57;;
15655;SDS011;7928;43.614;1.456;2023-03-14T11:09:21;7.10;;;1.50;;
15655;SDS011;7928;43.614;1.456;2023-03-14T11:11:52;10.40;;;2.10;;
15655;SDS011;7928;43.614;1.456;2023-03-14T11:14:26;7.50;;;2.07;;
15655;SDS011;7928;43.614;1.456;2023-03-14T11:17:00;7.47;;;1.40;;
15655;SDS011;7928;43.614;1.456;2023-03-14T11:19:34;13.23;;;1.90;;
15655;SDS011;7928;43.614;1.456;2023-03-14T11:22:14;9.00;;;1.67;;
15655;SDS011;7928;43.614;1.456;2023-03-14T11:24:49;7.50;;;1.77;;
15655;SDS011;7928;43.614;1.456;2023-03-14T11:27:25;10.37;;;2.13;;
15655;SDS011;7928;43.614;1.456;2023-03-14T11:29:59;10.23;;;1.87;;
15655;SDS011;7928;43.614;1.456;2023-03-14T11:32:37;10.93;;;1.70;;
15655;SDS011;7928;43.614;1.456;2023-03-14T11:35:14;6.93;;;1.60;;
15655;SDS011;7928;43.614;1.456;2023-03-14T11:37:49;6.60;;;1.53;;
15655;SDS011;7928;43.614;1.456;2023-03-14T11:40:20;4.43;;;0.93;;
15655;SDS011;7928;43.614;1.456;2023-03-14T11:42:50;5.83;;;1.60;;
15655;SDS011;7928;43.614;1.456;2023-03-14T11:45:25;5.93;;;1.43;;
15655;SDS011;7928;43.614;1.456;2023-03-14T11:48:03;6.77;;;1.70;;
15655;SDS011;7928;43.614;1.456;2023-03-14T11:50:40;4.93;;;1.23;;
15655;SDS011;7928;43.614;1.456;2023-03-14T11:53:11;5.53;;;1.23;;
15655;SDS011;7928;43.614;1.456;2023-03-14T11:55:42;5.40;;;1.40;;
15655;SDS011;7928;43.614;1.456;2023-03-14T11:58:12;7.63;;;1.33;;
15655;SDS011;7928;43.614;1.456;2023-03-14T12:00:43;11.60;;;1.30;;
15655;SDS011;7928;43.614;1.456;2023-03-14T12:03:14;3.97;;;1.10;;
15655;SDS011;7928;43.614;1.456;2023-03-14T12:05:55;5.10;;;1.37;;
15655;SDS011;7928;43.614;1.456;2023-03-14T12:08:39;3.23;;;0.70;;
15655;SDS011;7928;43.614;1.456;2023-03-14T12:11:12;5.03;;;1.13;;
15655;SDS011;7928;43.614;1.456;2023-03-14T12:13:45;2.50;;;0.80;;
15655;SDS011;7928;43.614;1.456;2023-03-14T12:16:31;7.33;;;1.33;;
15655;SDS011;7928;43.614;1.456;2023-03-14T12:19:14;7.30;;;1.40;;
15655;SDS011;7928;43.614;1.456;2023-03-14T12:24:53;4.17;;;1.03;;
15655;SDS011;7928;43.614;1.456;2023-03-14T12:27:40;4.93;;;1.33;;
15655;SDS011;7928;43.614;1.456;2023-03-14T12:35:59;5.17;;;1.40;;
15655;SDS011;7928;43.614;1.456;2023-03-14T12:41:36;9.03;;;1.43;;
15655;SDS011;7928;43.614;1.456;2023-03-14T12:50:21;8.93;;;2.10;;
15655;SDS011;7928;43.614;1.456;2023-03-14T12:55:58;6.77;;;1.90;;
15655;SDS011;7928;43.614;1.456;2023-03-14T12:58:34;5.57;;;1.73;;
15655;SDS011;7928;43.614;1.456;2023-03-14T13:01:05;7.07;;;1.87;;
15655;SDS011;7928;43.614;1.456;2023-03-14T13:03:43;7.13;;;1.77;;
15655;SDS011;7928;43.614;1.456;2023-03-14T13:06:12;5.70;;;1.63;;
15655;SDS011;7928;43.614;1.456;2023-03-14T13:08:40;8.50;;;1.50;;
15655;SDS011;7928;43.614;1.456;2023-03-14T13:11:09;7.33;;;1.60;;
15655;SDS011;7928;43.614;1.456;2023-03-14T13:13:42;5.43;;;1.73;;
15655;SDS011;7928;43.614;1.456;2023-03-14T13:16:14;4.43;;;1.30;;
15655;SDS011;7928;43.614;1.456;2023-03-14T13:18:44;5.47;;;1.10;;
15655;SDS011;7928;43.614;1.456;2023-03-14T13:21:13;6.80;;;2.13;;
15655;SDS011;7928;43.614;1.456;2023-03-14T13:23:53;4.90;;;1.47;;
15655;SDS011;7928;43.614;1.456;2023-03-14T13:26:23;3.63;;;0.93;;
15655;SDS011;7928;43.614;1.456;2023-03-14T13:28:54;7.73;;;1.93;;
15655;SDS011;7928;43.614;1.456;2023-03-14T13:31:22;7.10;;;1.50;;
15655;SDS011;7928;43.614;1.456;2023-03-14T13:33:58;4.93;;;1.40;;
15655;SDS011;7928;43.614;1.456;2023-03-14T13:36:25;5.37;;;1.70;;
15655;SDS011;7928;43.614;1.456;2023-03-14T13:38:56;4.07;;;1.13;;
15655;SDS011;7928;43.614;1.456;2023-03-14T13:41:24;8.80;;;1.90;;
15655;SDS011;7928;43.614;1.456;2023-03-14T13:43:52;4.27;;;1.27;;
15655;SDS011;7928;43.614;1.456;2023-03-14T13:46:28;3.67;;;0.97;;
15655;SDS011;7928;43.614;1.456;2023-03-14T13:48:57;3.90;;;0.90;;
15655;SDS011;7928;43.614;1.456;2023-03-14T13:51:26;2.00;;;0.80;;
15655;SDS011;7928;43.614;1.456;2023-03-14T13:53:56;2.27;;;0.50;;
15655;SDS011;7928;43.614;1.456;2023-03-14T13:56:25;3.00;;;0.67;;
15655;SDS011;7928;43.614;1.456;2023-03-14T13:58:53;2.40;;;0.50;;
15655;SDS011;7928;43.614;1.456;2023-03-14T14:01:23;1.30;;;0.30;;
15655;SDS011;7928;43.614;1.456;2023-03-14T14:03:54;1.43;;;0.43;;
15655;SDS011;7928;43.614;1.456;2023-03-14T14:06:26;3.80;;;0.60;;
15655;SDS011;7928;43.614;1.456;2023-03-14T14:08:56;3.90;;;0.77;;
15655;SDS011;7928;43.614;1.456;2023-03-14T14:11:28;1.20;;;0.43;;
15655;SDS011;7928;43.614;1.456;2023-03-14T14:14:04;2.23;;;0.57;;
15655;SDS011;7928;43.614;1.456;2023-03-14T14:16:37;4.33;;;1.00;;
15655;SDS011;7928;43.614;1.456;2023-03-14T14:19:04;2.53;;;0.70;;
15655;SDS011;7928;43.614;1.456;2023-03-14T14:21:32;2.30;;;0.60;;
15655;SDS011;7928;43.614;1.456;2023-03-14T14:23:59;2.47;;;0.60;;
15655;SDS011;7928;43.614;1.456;2023-03-14T14:26:26;2.47;;;0.63;;
15655;SDS011;7928;43.614;1.456;2023-03-14T14:29:00;3.87;;;0.93;;
15655;SDS011;7928;43.614;1.456;2023-03-14T14:31:29;2.80;;;0.50;;
15655;SDS011;7928;43.614;1.456;2023-03-14T14:33:58;2.57;;;0.50;;
15655;SDS011;7928;43.614;1.456;2023-03-14T14:36:27;4.83;;;0.80;;
15655;SDS011;7928;43.614;1.456;2023-03-14T14:38:58;3.10;;;0.83;;
15655;SDS011;7928;43.614;1.456;2023-03-14T14:41:26;2.73;;;0.70;;
15655;SDS011;7928;43.614;1.456;2023-03-14T14:43:55;4.13;;;1.10;;
15655;SDS011;7928;43.614;1.456;2023-03-14T14:46:23;3.90;;;0.70;;
15655;SDS011;7928;43.614;1.456;2023-03-14T14:48:54;3.43;;;1.00;;
15655;SDS011;7928;43.614;1.456;2023-03-14T14:51:25;4.13;;;1.20;;
15655;SDS011;7928;43.614;1.456;2023-03-14T14:56:45;5.47;;;1.47;;
15655;SDS011;7928;43.614;1.456;2023-03-14T14:59:23;4.93;;;1.13;;
15655;SDS011;7928;43.614;1.456;2023-03-14T15:01:54;5.40;;;0.77;;
15655;SDS011;7928;43.614;1.456;2023-03-14T15:04:22;3.97;;;0.90;;
15655;SDS011;7928;43.614;1.456;2023-03-14T15:06:51;3.83;;;0.80;;
15655;SDS011;7928;43.614;1.456;2023-03-14T15:09:19;5.03;;;0.77;;
15655;SDS011;7928;43.614;1.456;2023-03-14T15:11:46;4.00;;;1.00;;
15655;SDS011;7928;43.614;1.456;2023-03-14T15:14:13;4.67;;;1.30;;
15655;SDS011;7928;43.614;1.456;2023-03-14T15:16:40;5.57;;;0.77;;
15655;SDS011;7928;43.614;1.456;2023-03-14T15:19:10;4.13;;;1.07;;
15655;SDS011;7928;43.614;1.456;2023-03-14T15:21:40;4.57;;;1.43;;
15655;SDS011;7928;43.614;1.456;2023-03-14T15:24:09;4.73;;;1.30;;
15655;SDS011;7928;43.614;1.456;2023-03-14T15:26:37;1.83;;;0.60;;
15655;SDS011;7928;43.614;1.456;2023-03-14T15:29:04;3.07;;;0.70;;